createdAt,value
2019-02-27T00:01:07.678Z,3.90
2019-02-27T00:03:39.057Z,4.00
2019-02-27T00:06:16.049Z,3.90
2019-02-27T00:08:46.239Z,3.90
2019-02-27T00:11:16.199Z,3.90
2019-02-27T00:13:46.238Z,3.80
2019-02-27T00:16:16.162Z,3.70
2019-02-27T00:18:46.359Z,3.70
2019-02-27T00:21:16.187Z,3.60
2019-02-27T00:23:46.086Z,3.60
2019-02-27T00:26:16.027Z,3.50
2019-02-27T00:28:46.061Z,3.50
2019-02-27T00:31:17.520Z,3.40
2019-02-27T00:33:47.765Z,3.40
2019-02-27T00:36:18.865Z,3.40
2019-02-27T00:38:50.265Z,3.40
2019-02-27T00:41:20.593Z,3.40
2019-02-27T00:43:50.532Z,3.40
2019-02-27T00:46:20.480Z,3.50
2019-02-27T00:48:50.454Z,3.50
2019-02-27T00:51:20.382Z,3.50
2019-02-27T00:53:50.378Z,3.50
2019-02-27T00:56:20.403Z,3.50
2019-02-27T00:58:50.468Z,3.40
2019-02-27T01:01:20.378Z,3.40
2019-02-27T01:03:50.702Z,3.40
2019-02-27T01:06:20.685Z,3.30
2019-02-27T01:08:50.684Z,3.40
2019-02-27T01:11:20.687Z,3.30
2019-02-27T01:13:50.664Z,3.20
2019-02-27T01:16:20.601Z,3.30
2019-02-27T01:18:53.136Z,3.30
2019-02-27T01:21:23.144Z,3.30
2019-02-27T01:23:53.113Z,3.30
2019-02-27T01:26:23.137Z,3.40
2019-02-27T01:28:53.098Z,3.30
2019-02-27T01:31:24.032Z,3.20
2019-02-27T01:33:54.594Z,3.20
2019-02-27T01:36:25.254Z,3.10
2019-02-27T01:38:56.543Z,3.00
2019-02-27T01:41:26.541Z,3.00
2019-02-27T01:43:56.571Z,3.00
2019-02-27T01:46:27.766Z,3.00
2019-02-27T01:48:58.442Z,2.90
2019-02-27T01:51:28.927Z,2.80
2019-02-27T01:53:58.954Z,2.70
2019-02-27T01:56:29.625Z,2.50
2019-02-27T01:58:59.848Z,2.50
2019-02-27T02:01:30.233Z,2.40
2019-02-27T02:04:00.879Z,2.30
2019-02-27T02:06:32.499Z,2.30
2019-02-27T02:09:11.716Z,2.30
2019-02-27T02:11:41.764Z,2.20
2019-02-27T02:14:23.560Z,2.10
2019-02-27T02:17:00.156Z,2.00
2019-02-27T02:19:41.937Z,2.00
2019-02-27T02:22:23.121Z,1.90
2019-02-27T02:25:09.133Z,2.00
2019-02-27T02:28:00.303Z,1.90
2019-02-27T02:30:45.205Z,2.00
2019-02-27T02:33:30.482Z,2.00
2019-02-27T02:36:26.390Z,2.00
2019-02-27T02:39:21.717Z,2.10
2019-02-27T02:41:56.245Z,2.00
2019-02-27T02:44:40.949Z,2.00
2019-02-27T02:47:31.822Z,1.90
2019-02-27T02:50:39.357Z,2.00
2019-02-27T02:53:37.986Z,1.90
2019-02-27T02:56:13.373Z,1.90
2019-02-27T02:59:02.650Z,2.00
2019-02-27T03:01:35.529Z,1.80
2019-02-27T03:04:34.400Z,1.70
2019-02-27T03:07:10.868Z,1.70
2019-02-27T03:10:08.459Z,1.70
2019-02-27T03:13:05.820Z,1.60
2019-02-27T03:15:36.710Z,1.60
2019-02-27T03:18:15.233Z,1.50
2019-02-27T03:20:51.880Z,1.50
2019-02-27T03:23:25.316Z,1.60
2019-02-27T03:26:16.477Z,1.50
2019-02-27T03:28:56.430Z,1.50
2019-02-27T03:31:32.282Z,1.30
2019-02-27T03:34:23.046Z,1.40
2019-02-27T03:37:24.947Z,1.40
2019-02-27T03:40:14.700Z,1.30
2019-02-27T03:42:47.678Z,1.20
2019-02-27T03:45:40.027Z,1.40
2019-02-27T03:48:15.777Z,1.30
2019-02-27T03:50:51.513Z,1.40
2019-02-27T03:53:27.401Z,1.30
2019-02-27T03:56:24.739Z,1.40
2019-02-27T03:59:07.457Z,1.40
2019-02-27T04:01:52.476Z,1.30
2019-02-27T04:04:31.151Z,1.20
2019-02-27T04:07:20.180Z,1.20
2019-02-27T04:09:54.831Z,1.20
2019-02-27T04:12:22.203Z,1.20
2019-02-27T04:14:52.203Z,1.30
2019-02-27T04:17:29.966Z,1.30
2019-02-27T04:20:01.854Z,1.40
2019-02-27T04:22:36.267Z,1.40
2019-02-27T04:25:03.730Z,1.30
2019-02-27T04:27:33.635Z,1.40
2019-02-27T04:30:04.600Z,1.30
2019-02-27T04:32:35.096Z,1.20
2019-02-27T04:35:06.881Z,1.10
2019-02-27T04:37:36.982Z,0.90
2019-02-27T04:40:10.878Z,1.10
2019-02-27T04:42:40.293Z,1.20
2019-02-27T04:45:12.437Z,1.40
2019-02-27T04:47:42.991Z,1.40
2019-02-27T04:50:12.919Z,1.30
2019-02-27T04:52:42.829Z,1.30
2019-02-27T04:55:13.077Z,1.30
2019-02-27T04:57:44.380Z,1.30
2019-02-27T05:00:14.412Z,1.40
2019-02-27T05:02:44.328Z,1.40
2019-02-27T05:05:14.294Z,1.40
2019-02-27T05:07:44.134Z,1.10
2019-02-27T05:10:14.121Z,1.00
2019-02-27T05:12:47.857Z,1.00
2019-02-27T05:15:15.529Z,0.90
2019-02-27T05:17:45.646Z,0.70
2019-02-27T05:20:15.599Z,0.70
2019-02-27T05:22:45.559Z,0.80
2019-02-27T05:25:15.476Z,0.70
2019-02-27T05:27:45.345Z,0.60
2019-02-27T05:30:15.193Z,0.40
2019-02-27T05:32:46.334Z,0.30
2019-02-27T05:35:16.163Z,0.30
2019-02-27T05:37:46.102Z,0.30
2019-02-27T05:40:16.083Z,0.10
2019-02-27T05:42:45.961Z,0.10
2019-02-27T05:45:16.001Z,0.20
2019-02-27T05:47:46.061Z,0.30
2019-02-27T05:50:16.039Z,0.20
2019-02-27T05:52:48.777Z,0.20
2019-02-27T05:55:18.655Z,0.10
2019-02-27T05:57:48.596Z,0.10
2019-02-27T06:00:20.397Z,0.10
2019-02-27T06:02:50.370Z,0.10
2019-02-27T06:05:20.262Z,0.10
2019-02-27T06:07:50.352Z,0.20
2019-02-27T06:10:21.140Z,0.40
2019-02-27T06:12:52.038Z,0.50
2019-02-27T06:15:21.954Z,0.60
2019-02-27T06:17:51.986Z,0.60
2019-02-27T06:20:21.906Z,0.60
2019-02-27T06:22:53.351Z,0.80
2019-02-27T06:25:24.051Z,1.00
2019-02-27T06:27:54.089Z,1.20
2019-02-27T06:30:24.193Z,1.50
2019-02-27T06:32:54.119Z,2.10
2019-02-27T06:35:24.082Z,2.80
2019-02-27T06:37:54.048Z,3.30
2019-02-27T06:40:23.967Z,3.70
2019-02-27T06:42:54.798Z,4.20
2019-02-27T06:45:25.896Z,4.50
2019-02-27T06:47:55.828Z,4.10
2019-02-27T06:50:26.114Z,4.30
2019-02-27T06:52:56.066Z,4.40
2019-02-27T06:55:28.109Z,4.80
2019-02-27T06:57:57.574Z,5.20
2019-02-27T07:00:27.538Z,5.20
2019-02-27T07:02:57.408Z,5.50
2019-02-27T07:05:27.405Z,5.70
2019-02-27T07:07:57.389Z,6.20
2019-02-27T07:10:27.403Z,6.30
2019-02-27T07:12:57.407Z,6.20
2019-02-27T07:15:27.344Z,6.70
2019-02-27T07:17:57.338Z,6.90
2019-02-27T07:20:27.422Z,7.50
2019-02-27T07:22:57.264Z,6.90
2019-02-27T07:25:27.978Z,7.00
2019-02-27T07:27:58.099Z,7.30
2019-02-27T07:30:28.094Z,7.80
2019-02-27T07:32:58.044Z,8.20
2019-02-27T07:35:29.266Z,8.00
2019-02-27T07:37:59.384Z,8.10
2019-02-27T07:40:29.279Z,8.00
2019-02-27T07:42:59.194Z,8.20
2019-02-27T07:45:29.154Z,8.60
2019-02-27T07:47:59.063Z,9.10
2019-02-27T07:50:29.106Z,9.30
2019-02-27T07:52:59.081Z,9.60
2019-02-27T07:55:29.819Z,9.20
2019-02-27T07:57:59.662Z,9.30
2019-02-27T08:00:29.620Z,9.00
2019-02-27T08:03:09.823Z,9.30
2019-02-27T08:05:39.847Z,9.30
2019-02-27T08:08:09.742Z,9.60
2019-02-27T08:10:39.947Z,9.30
2019-02-27T08:13:10.021Z,9.20
2019-02-27T08:15:40.144Z,9.20
2019-02-27T08:18:10.376Z,9.40
2019-02-27T08:20:40.626Z,9.50
2019-02-27T08:23:10.599Z,9.90
2019-02-27T08:25:40.602Z,9.60
2019-02-27T08:28:10.897Z,9.80
2019-02-27T08:30:41.048Z,10.60
2019-02-27T08:33:11.039Z,10.50
2019-02-27T08:35:41.003Z,10.70
2019-02-27T08:38:11.035Z,10.60
2019-02-27T08:40:41.145Z,10.50
2019-02-27T08:43:11.447Z,11.20
2019-02-27T08:45:41.493Z,10.60
2019-02-27T08:48:11.550Z,11.30
2019-02-27T08:50:41.705Z,10.80
2019-02-27T08:53:16.288Z,10.70
2019-02-27T08:55:46.369Z,11.30
2019-02-27T08:58:16.575Z,11.40
2019-02-27T09:00:47.473Z,11.90
2019-02-27T09:03:20.640Z,12.90
2019-02-27T09:05:51.086Z,13.30
2019-02-27T09:08:22.037Z,12.70
2019-02-27T09:10:52.015Z,12.40
2019-02-27T09:13:25.339Z,11.70
2019-02-27T09:15:55.413Z,11.00
2019-02-27T09:18:25.306Z,11.10
2019-02-27T09:20:55.347Z,10.90
2019-02-27T09:23:25.546Z,10.30
2019-02-27T09:25:57.487Z,10.40
2019-02-27T09:28:28.673Z,11.60
2019-02-27T09:31:04.184Z,11.70
2019-02-27T09:33:38.780Z,11.30
2019-02-27T09:36:08.044Z,10.40
2019-02-27T09:38:38.375Z,11.40
2019-02-27T09:41:12.128Z,11.40
2019-02-27T09:43:43.224Z,12.00
2019-02-27T09:46:13.381Z,11.70
2019-02-27T09:48:43.718Z,11.90
2019-02-27T09:51:13.823Z,11.50
2019-02-27T09:53:44.055Z,11.70
2019-02-27T09:56:15.436Z,11.70
2019-02-27T09:58:47.013Z,11.90
2019-02-27T10:01:18.267Z,12.20
2019-02-27T10:03:48.309Z,12.00
2019-02-27T10:06:18.467Z,12.20
2019-02-27T10:08:48.704Z,12.40
2019-02-27T10:11:20.691Z,12.50
2019-02-27T10:13:50.282Z,13.00
2019-02-27T10:16:21.469Z,13.10
2019-02-27T10:18:55.630Z,12.20
2019-02-27T10:21:24.457Z,12.70
2019-02-27T10:23:54.463Z,12.60
2019-02-27T10:26:24.433Z,12.40
2019-02-27T10:28:54.495Z,12.30
2019-02-27T10:31:25.904Z,12.80
2019-02-27T10:33:55.995Z,12.80
2019-02-27T10:36:28.200Z,13.00
2019-02-27T10:39:01.646Z,12.10
2019-02-27T10:41:33.952Z,11.30
2019-02-27T10:44:04.337Z,11.80
2019-02-27T10:46:34.946Z,12.60
2019-02-27T10:49:05.147Z,13.00
2019-02-27T10:51:35.112Z,13.30
2019-02-27T10:54:05.568Z,13.60
2019-02-27T10:56:36.115Z,13.80
2019-02-27T10:59:07.423Z,14.30
2019-02-27T11:01:40.351Z,14.40
2019-02-27T11:04:12.415Z,13.90
2019-02-27T11:06:45.027Z,13.70
2019-02-27T11:09:17.667Z,13.90
2019-02-27T11:11:51.513Z,14.10
2019-02-27T11:14:21.293Z,14.10
2019-02-27T11:16:51.317Z,13.90
2019-02-27T11:19:21.221Z,13.70
2019-02-27T11:21:51.191Z,13.80
2019-02-27T11:24:24.810Z,13.70
2019-02-27T11:26:56.917Z,14.20
2019-02-27T11:29:28.957Z,14.20
2019-02-27T11:32:01.302Z,13.90
2019-02-27T11:34:31.225Z,14.30
2019-02-27T11:37:04.262Z,15.20
2019-02-27T11:39:35.477Z,15.20
2019-02-27T11:42:07.472Z,14.00
2019-02-27T11:44:38.770Z,12.10
2019-02-27T11:47:15.363Z,10.90
2019-02-27T11:49:46.015Z,10.40
2019-02-27T11:52:17.882Z,10.20
2019-02-27T11:54:48.229Z,10.40
2019-02-27T11:57:19.649Z,10.70
2019-02-27T11:59:50.050Z,10.40
2019-02-27T12:02:28.595Z,10.30
2019-02-27T12:04:55.287Z,11.00
2019-02-27T12:07:24.739Z,11.40
2019-02-27T12:09:56.276Z,12.80
2019-02-27T12:12:26.580Z,13.80
2019-02-27T12:14:58.844Z,14.00
2019-02-27T12:17:31.859Z,14.60
2019-02-27T12:20:03.659Z,15.50
2019-02-27T12:22:39.460Z,15.20
2019-02-27T12:25:13.012Z,15.80
2019-02-27T12:27:49.067Z,15.80
2019-02-27T12:30:17.223Z,16.10
2019-02-27T12:32:47.996Z,15.70
2019-02-27T12:35:21.627Z,14.60
2019-02-27T12:37:51.902Z,14.70
2019-02-27T12:40:24.933Z,15.00
2019-02-27T12:42:56.260Z,15.00
2019-02-27T12:45:36.339Z,15.60
2019-02-27T12:48:12.620Z,15.90
2019-02-27T12:50:44.783Z,16.40
2019-02-27T12:59:22.691Z,12.50
2019-02-27T13:01:58.499Z,12.10
2019-02-27T13:04:33.131Z,11.50
2019-02-27T13:07:05.460Z,11.00
2019-02-27T13:09:35.828Z,11.00
2019-02-27T13:12:09.139Z,10.70
2019-02-27T13:14:39.499Z,10.60
2019-02-27T13:17:09.821Z,10.50
2019-02-27T13:19:40.461Z,10.80
2019-02-27T13:22:11.460Z,10.70
2019-02-27T13:24:47.100Z,10.60
2019-02-27T13:27:26.860Z,10.70
2019-02-27T13:30:09.340Z,10.60
2019-02-27T13:32:42.780Z,10.40
2019-02-27T13:35:13.620Z,10.50
2019-02-27T13:37:48.104Z,10.40
2019-02-27T13:40:26.740Z,10.40
2019-02-27T13:42:57.103Z,10.20
2019-02-27T13:45:30.620Z,10.10
2019-02-27T13:48:04.974Z,10.10
2019-02-27T13:50:33.743Z,10.00
2019-02-27T13:53:38.908Z,10.00
2019-02-27T13:55:51.893Z,9.70
2019-02-27T13:58:27.139Z,9.60
2019-02-27T14:01:06.419Z,9.50
2019-02-27T14:07:24.183Z,9.50
2019-02-27T14:09:13.253Z,10.00
2019-02-27T14:11:44.493Z,10.60
2019-02-27T14:14:19.100Z,10.60
2019-02-27T14:16:51.211Z,10.50
2019-02-27T14:19:23.885Z,10.40
2019-02-27T14:21:56.080Z,10.50
2019-02-27T14:24:27.575Z,10.50
2019-02-27T14:26:58.021Z,10.40
2019-02-27T14:29:29.875Z,10.50
2019-02-27T14:32:24.130Z,11.10
2019-02-27T14:34:51.421Z,12.00
2019-02-27T14:37:22.211Z,12.60
2019-02-27T14:39:56.544Z,13.00
2019-02-27T14:42:27.811Z,13.20
2019-02-27T14:45:03.260Z,13.00
2019-02-27T14:47:33.132Z,12.80
2019-02-27T14:53:06.643Z,12.30
2019-02-27T14:55:37.431Z,12.70
2019-02-27T14:58:07.902Z,11.90
2019-02-27T15:00:41.205Z,11.50
2019-02-27T15:03:16.140Z,11.70
2019-02-27T15:05:46.734Z,11.70
2019-02-27T15:08:33.750Z,11.00
2019-02-27T15:11:06.060Z,10.50
2019-02-27T15:13:36.890Z,10.10
2019-02-27T15:16:15.585Z,9.90
2019-02-27T15:18:49.380Z,9.90
2019-02-27T15:21:20.935Z,9.90
2019-02-27T15:24:01.356Z,10.00
2019-02-27T15:26:32.524Z,10.00
2019-02-27T15:29:03.133Z,9.90
2019-02-27T15:31:35.344Z,9.60
2019-02-27T15:34:05.740Z,9.40
2019-02-27T15:36:38.779Z,9.20
2019-02-27T15:39:10.539Z,9.10
2019-02-27T15:41:42.531Z,8.90
2019-02-27T15:44:13.774Z,8.80
2019-02-27T15:46:44.612Z,8.80
2019-02-27T15:49:15.118Z,8.80
2019-02-27T15:51:46.330Z,8.70
2019-02-27T15:54:17.820Z,8.70
2019-02-27T15:56:48.341Z,8.50
2019-02-27T15:59:19.300Z,8.50
2019-02-27T16:01:50.259Z,8.40
2019-02-27T16:04:22.260Z,8.40
2019-02-27T16:06:52.823Z,8.30
2019-02-27T16:09:23.691Z,8.20
2019-02-27T16:11:54.339Z,8.20
2019-02-27T16:14:25.660Z,8.20
2019-02-27T16:16:57.572Z,8.10
2019-02-27T16:19:31.100Z,8.00
2019-02-27T16:22:01.700Z,7.90
2019-02-27T16:24:32.019Z,7.90
2019-02-27T16:27:02.459Z,7.90
2019-02-27T16:29:32.932Z,7.80
2019-02-27T16:32:03.463Z,7.70
2019-02-27T16:34:34.326Z,7.70
2019-02-27T16:37:06.060Z,7.60
2019-02-27T16:39:41.602Z,7.50
2019-02-27T16:42:10.693Z,7.50
2019-02-27T16:44:42.740Z,7.50
2019-02-27T16:47:19.605Z,7.50
2019-02-27T16:49:50.427Z,7.50
2019-02-27T16:52:21.211Z,7.40
2019-02-27T16:55:02.377Z,7.40
2019-02-27T16:57:34.163Z,7.50
2019-02-27T17:00:08.113Z,7.50
2019-02-27T17:02:48.062Z,7.50
2019-02-27T17:05:29.404Z,7.50
2019-02-27T17:08:02.689Z,7.50
2019-02-27T17:10:36.260Z,7.50
2019-02-27T17:13:14.418Z,7.50
2019-02-27T17:15:44.524Z,7.40
2019-02-27T17:18:24.662Z,7.30
2019-02-27T17:20:52.820Z,7.40
2019-02-27T17:23:27.902Z,7.40
2019-02-27T17:26:03.427Z,7.40
2019-02-27T17:28:31.463Z,7.50
2019-02-27T17:31:05.318Z,7.40
2019-02-27T17:33:37.921Z,7.40
2019-02-27T17:36:09.980Z,7.50
2019-02-27T17:38:40.224Z,7.50
2019-02-27T17:41:12.700Z,7.60
2019-02-27T17:43:45.571Z,7.70
2019-02-27T17:46:20.787Z,7.70
2019-02-27T17:48:51.500Z,7.80
2019-02-27T17:51:22.771Z,7.80
2019-02-27T17:53:55.087Z,7.90
2019-02-27T17:56:26.660Z,7.90
2019-02-27T17:58:58.251Z,7.90
2019-02-27T18:01:29.180Z,7.90
2019-02-27T18:04:01.891Z,7.90
2019-02-27T18:06:37.381Z,7.90
2019-02-27T18:09:12.011Z,7.90
2019-02-27T18:11:43.131Z,7.90
2019-02-27T18:14:14.620Z,7.80
2019-02-27T18:16:46.925Z,7.80
2019-02-27T18:19:20.248Z,7.80
2019-02-27T18:21:50.703Z,7.80
2019-02-27T18:24:21.260Z,7.80
2019-02-27T18:26:52.140Z,7.80
2019-02-27T18:29:22.691Z,7.70
2019-02-27T18:31:53.180Z,7.70
2019-02-27T18:34:25.029Z,7.70
2019-02-27T18:36:55.660Z,7.70
2019-02-27T18:39:26.220Z,7.60
2019-02-27T18:41:57.299Z,7.50
2019-02-27T18:44:28.500Z,7.50
2019-02-27T18:47:01.785Z,7.40
2019-02-27T18:49:32.540Z,7.40
2019-02-27T18:52:06.360Z,7.30
2019-02-27T18:54:35.142Z,7.30
2019-02-27T18:57:05.700Z,7.20
2019-02-27T18:59:36.301Z,7.20
2019-02-27T19:02:07.500Z,7.20
2019-02-27T19:04:39.611Z,7.20
2019-02-27T19:07:10.741Z,7.20
2019-02-27T19:09:41.540Z,7.20
2019-02-27T19:12:12.523Z,7.20
2019-02-27T19:14:45.546Z,7.20
2019-02-27T19:17:16.131Z,7.30
2019-02-27T19:19:48.980Z,7.30
2019-02-27T19:22:20.291Z,7.30
2019-02-27T19:24:51.460Z,7.30
2019-02-27T19:27:24.060Z,7.20
2019-02-27T19:29:58.276Z,7.10
2019-02-27T19:32:29.772Z,7.10
2019-02-27T19:35:01.546Z,7.10
2019-02-27T19:37:36.403Z,7.10
2019-02-27T19:40:13.462Z,7.10
2019-02-27T19:43:01.543Z,7.10
2019-02-27T19:45:36.663Z,7.20
2019-02-27T19:48:08.301Z,7.30
2019-02-27T19:50:45.531Z,7.20
2019-02-27T19:53:23.221Z,7.10
2019-02-27T19:55:54.208Z,6.90
2019-02-27T19:58:32.452Z,6.70
2019-02-27T20:01:09.111Z,6.60
2019-02-27T20:03:40.084Z,6.40
2019-02-27T20:06:11.348Z,6.40
2019-02-27T20:08:45.407Z,6.30
2019-02-27T20:11:15.648Z,6.30
2019-02-27T20:13:47.451Z,6.30
2019-02-27T20:16:20.721Z,6.50
2019-02-27T20:18:54.759Z,6.60
2019-02-27T20:21:25.342Z,6.70
2019-02-27T20:24:01.191Z,6.60
2019-02-27T20:26:29.582Z,6.50
2019-02-27T20:29:00.455Z,6.40
2019-02-27T20:31:31.461Z,6.40
2019-02-27T20:34:03.616Z,6.20
2019-02-27T20:36:34.260Z,6.10
2019-02-27T20:39:06.621Z,6.00
2019-02-27T20:41:40.935Z,5.90
2019-02-27T20:44:09.539Z,5.80
2019-02-27T20:46:41.931Z,5.70
2019-02-27T20:49:14.864Z,5.60
2019-02-27T20:51:45.573Z,5.50
2019-02-27T20:54:24.213Z,5.30
2019-02-27T20:57:01.891Z,5.30
2019-02-27T20:59:35.040Z,5.20
2019-02-27T21:02:07.308Z,5.10
2019-02-27T21:04:44.860Z,5.20
2019-02-27T21:07:22.289Z,5.20
2019-02-27T21:09:54.888Z,5.00
2019-02-27T21:12:29.572Z,5.10
2019-02-27T21:15:10.700Z,5.00
2019-02-27T21:17:45.134Z,5.10
2019-02-27T21:20:22.018Z,5.50
2019-02-27T21:23:00.254Z,5.70
2019-02-27T21:25:38.382Z,5.90
2019-02-27T21:28:21.003Z,6.00
2019-02-27T21:30:51.809Z,6.30
2019-02-27T21:33:22.247Z,6.40
2019-02-27T21:35:54.972Z,6.70
2019-02-27T21:38:36.700Z,6.80
2019-02-27T21:41:21.535Z,6.90
2019-02-27T21:43:57.255Z,6.90
2019-02-27T21:46:29.675Z,7.00
2019-02-27T21:49:11.691Z,7.00
2019-02-27T21:51:48.066Z,7.00
2019-02-27T21:54:19.137Z,6.90
2019-02-27T21:56:55.163Z,7.00
2019-02-27T21:59:29.352Z,7.00
2019-02-27T22:02:02.332Z,7.00
2019-02-27T22:04:34.358Z,6.90
2019-02-27T22:07:05.564Z,7.00
2019-02-27T22:09:36.847Z,7.00
2019-02-27T22:12:11.823Z,6.90
2019-02-27T22:14:45.317Z,6.90
2019-02-27T22:17:16.064Z,6.80
2019-02-27T22:19:50.412Z,6.90
2019-02-27T22:22:19.559Z,6.90
2019-02-27T22:24:55.535Z,6.90
2019-02-27T22:27:27.288Z,6.90
2019-02-27T22:29:59.777Z,6.90
2019-02-27T22:32:37.781Z,6.80
2019-02-27T22:35:12.979Z,6.80
2019-02-27T22:37:44.401Z,6.80
2019-02-27T22:40:23.983Z,6.80
2019-02-27T22:42:57.356Z,6.80
2019-02-27T22:45:29.869Z,6.80
2019-02-27T22:48:00.079Z,6.80
2019-02-27T22:50:31.195Z,6.80
2019-02-27T22:53:03.244Z,6.70
2019-02-27T22:55:36.292Z,6.80
2019-02-27T22:58:07.185Z,6.70
2019-02-27T23:00:56.040Z,6.70
2019-02-27T23:03:37.437Z,6.60
2019-02-27T23:06:13.840Z,6.50
2019-02-27T23:08:45.443Z,6.50
2019-02-27T23:11:18.269Z,6.50
2019-02-27T23:13:50.725Z,6.50
2019-02-27T23:16:21.841Z,6.50
2019-02-27T23:18:52.446Z,6.30
2019-02-27T23:21:23.331Z,6.10
2019-02-27T23:23:53.564Z,5.70
2019-02-27T23:26:25.192Z,5.40
2019-02-27T23:28:55.270Z,5.30
2019-02-27T23:31:25.123Z,5.30
2019-02-27T23:33:55.035Z,5.20
2019-02-27T23:36:24.989Z,5.30
2019-02-27T23:38:54.963Z,5.40
2019-02-27T23:41:24.995Z,5.40
2019-02-27T23:43:55.949Z,5.30
2019-02-27T23:46:27.650Z,5.40
2019-02-27T23:48:57.648Z,5.20
2019-02-27T23:51:27.494Z,5.10
2019-02-27T23:54:01.212Z,5.10
2019-02-27T23:56:31.522Z,4.90
2019-02-27T23:59:02.704Z,4.80
